sensor_id;sensor_type;location;lat;lon;timestamp;P1;P2;P0
69736;PMS5003;60097;55.004;73.344;2022-10-16T00:01:47;30.05;16.20;
69736;PMS5003;60097;55.004;73.344;2022-10-16T00:04:14;32.10;16.38;
69736;PMS5003;60097;55.004;73.344;2022-10-16T00:06:40;27.13;17.50;
69736;PMS5003;60097;55.004;73.344;2022-10-16T00:09:07;36.08;16.55;
69736;PMS5003;60097;55.004;73.344;2022-10-16T00:11:35;39.70;16.95;
69736;PMS5003;60097;55.004;73.344;2022-10-16T00:14:04;29.80;17.30;
69736;PMS5003;60097;55.004;73.344;2022-10-16T00:16:36;33.90;17.98;
69736;PMS5003;60097;55.004;73.344;2022-10-16T00:19:03;34.17;17.80;
69736;PMS5003;60097;55.004;73.344;2022-10-16T00:21:30;34.33;16.92;
69736;PMS5003;60097;55.004;73.344;2022-10-16T00:24:02;32.53;16.88;
69736;PMS5003;60097;55.004;73.344;2022-10-16T00:26:30;27.70;16.83;
69736;PMS5003;60097;55.004;73.344;2022-10-16T00:28:58;35.83;17.70;
69736;PMS5003;60097;55.004;73.344;2022-10-16T00:31:25;37.55;18.08;
69736;PMS5003;60097;55.004;73.344;2022-10-16T00:33:52;33.87;18.00;
69736;PMS5003;60097;55.004;73.344;2022-10-16T00:36:20;34.47;18.13;
69736;PMS5003;60097;55.004;73.344;2022-10-16T00:38:50;36.05;16.40;
69736;PMS5003;60097;55.004;73.344;2022-10-16T00:41:19;30.70;17.58;
69736;PMS5003;60097;55.004;73.344;2022-10-16T00:46:20;55.50;16.83;
69736;PMS5003;60097;55.004;73.344;2022-10-16T00:48:54;31.55;17.05;
69736;PMS5003;60097;55.004;73.344;2022-10-16T00:51:34;49.25;19.42;
69736;PMS5003;60097;55.004;73.344;2022-10-16T00:54:04;36.30;17.05;
69736;PMS5003;60097;55.004;73.344;2022-10-16T00:56:51;35.25;19.02;
69736;PMS5003;60097;55.004;73.344;2022-10-16T00:59:20;42.90;20.45;
69736;PMS5003;60097;55.004;73.344;2022-10-16T01:02:22;33.13;18.33;
69736;PMS5003;60097;55.004;73.344;2022-10-16T01:04:56;36.42;20.67;
69736;PMS5003;60097;55.004;73.344;2022-10-16T01:07:26;43.78;21.98;
69736;PMS5003;60097;55.004;73.344;2022-10-16T01:13:01;29.88;17.83;
69736;PMS5003;60097;55.004;73.344;2022-10-16T01:21:04;34.75;18.83;
69736;PMS5003;60097;55.004;73.344;2022-10-16T01:26:24;38.07;20.23;
69736;PMS5003;60097;55.004;73.344;2022-10-16T01:35:53;52.47;21.88;
69736;PMS5003;60097;55.004;73.344;2022-10-16T01:38:24;47.37;19.47;
69736;PMS5003;60097;55.004;73.344;2022-10-16T01:40:58;39.58;20.98;
69736;PMS5003;60097;55.004;73.344;2022-10-16T01:43:28;42.77;20.27;
69736;PMS5003;60097;55.004;73.344;2022-10-16T01:45:57;45.58;21.10;
69736;PMS5003;60097;55.004;73.344;2022-10-16T01:48:24;42.00;21.70;
69736;PMS5003;60097;55.004;73.344;2022-10-16T01:53:26;33.40;19.73;
69736;PMS5003;60097;55.004;73.344;2022-10-16T01:55:53;41.35;21.00;
69736;PMS5003;60097;55.004;73.344;2022-10-16T02:01:11;37.25;21.30;
69736;PMS5003;60097;55.004;73.344;2022-10-16T02:03:40;39.33;20.63;
69736;PMS5003;60097;55.004;73.344;2022-10-16T02:06:09;30.90;19.17;
69736;PMS5003;60097;55.004;73.344;2022-10-16T02:08:42;34.67;20.48;
69736;PMS5003;60097;55.004;73.344;2022-10-16T02:11:10;33.50;20.33;
69736;PMS5003;60097;55.004;73.344;2022-10-16T02:13:52;42.35;21.67;
69736;PMS5003;60097;55.004;73.344;2022-10-16T02:16:20;39.72;22.02;
69736;PMS5003;60097;55.004;73.344;2022-10-16T02:18:53;47.37;22.10;
69736;PMS5003;60097;55.004;73.344;2022-10-16T02:21:29;34.78;21.08;
69736;PMS5003;60097;55.004;73.344;2022-10-16T02:30:07;45.00;22.05;
69736;PMS5003;60097;55.004;73.344;2022-10-16T02:32:42;33.10;19.85;
69736;PMS5003;60097;55.004;73.344;2022-10-16T02:35:15;42.45;21.42;
69736;PMS5003;60097;55.004;73.344;2022-10-16T02:37:43;44.30;20.10;
69736;PMS5003;60097;55.004;73.344;2022-10-16T02:40:10;44.70;20.40;
69736;PMS5003;60097;55.004;73.344;2022-10-16T02:42:38;45.00;21.30;
69736;PMS5003;60097;55.004;73.344;2022-10-16T02:45:06;43.53;20.83;
69736;PMS5003;60097;55.004;73.344;2022-10-16T02:47:33;44.88;19.40;
69736;PMS5003;60097;55.004;73.344;2022-10-16T02:50:00;37.22;19.88;
69736;PMS5003;60097;55.004;73.344;2022-10-16T02:52:27;32.78;19.77;
69736;PMS5003;60097;55.004;73.344;2022-10-16T02:54:53;40.60;20.93;
69736;PMS5003;60097;55.004;73.344;2022-10-16T02:57:20;45.60;20.58;
69736;PMS5003;60097;55.004;73.344;2022-10-16T02:59:46;43.33;20.75;
69736;PMS5003;60097;55.004;73.344;2022-10-16T03:02:13;48.05;18.73;
69736;PMS5003;60097;55.004;73.344;2022-10-16T03:04:39;42.95;19.23;
69736;PMS5003;60097;55.004;73.344;2022-10-16T03:07:06;55.83;19.63;
69736;PMS5003;60097;55.004;73.344;2022-10-16T03:09:33;50.35;18.58;
69736;PMS5003;60097;55.004;73.344;2022-10-16T03:12:00;38.42;18.77;
69736;PMS5003;60097;55.004;73.344;2022-10-16T03:14:26;32.67;15.95;
69736;PMS5003;60097;55.004;73.344;2022-10-16T03:16:52;50.20;20.48;
69736;PMS5003;60097;55.004;73.344;2022-10-16T03:19:19;36.95;18.13;
69736;PMS5003;60097;55.004;73.344;2022-10-16T03:21:45;49.35;17.95;
69736;PMS5003;60097;55.004;73.344;2022-10-16T03:24:12;37.25;20.02;
69736;PMS5003;60097;55.004;73.344;2022-10-16T03:26:38;56.13;21.88;
69736;PMS5003;60097;55.004;73.344;2022-10-16T03:29:05;38.42;16.77;
69736;PMS5003;60097;55.004;73.344;2022-10-16T03:31:32;33.47;15.18;
69736;PMS5003;60097;55.004;73.344;2022-10-16T03:33:58;34.20;15.52;
69736;PMS5003;60097;55.004;73.344;2022-10-16T03:36:25;35.35;15.15;
69736;PMS5003;60097;55.004;73.344;2022-10-16T03:38:51;43.88;14.45;
69736;PMS5003;60097;55.004;73.344;2022-10-16T03:41:17;37.13;16.35;
69736;PMS5003;60097;55.004;73.344;2022-10-16T03:43:44;31.85;14.35;
69736;PMS5003;60097;55.004;73.344;2022-10-16T03:46:10;34.53;14.82;
69736;PMS5003;60097;55.004;73.344;2022-10-16T03:48:41;45.40;14.88;
69736;PMS5003;60097;55.004;73.344;2022-10-16T03:51:07;40.15;14.25;
69736;PMS5003;60097;55.004;73.344;2022-10-16T03:53:41;30.85;14.33;
69736;PMS5003;60097;55.004;73.344;2022-10-16T03:56:08;44.58;14.93;
69736;PMS5003;60097;55.004;73.344;2022-10-16T03:58:41;50.18;15.00;
69736;PMS5003;60097;55.004;73.344;2022-10-16T04:01:07;30.40;15.02;
69736;PMS5003;60097;55.004;73.344;2022-10-16T04:03:41;36.35;14.55;
69736;PMS5003;60097;55.004;73.344;2022-10-16T04:09:06;42.75;15.73;
69736;PMS5003;60097;55.004;73.344;2022-10-16T04:11:39;53.83;16.17;
69736;PMS5003;60097;55.004;73.344;2022-10-16T04:14:06;59.28;18.50;
69736;PMS5003;60097;55.004;73.344;2022-10-16T04:16:33;53.42;18.73;
69736;PMS5003;60097;55.004;73.344;2022-10-16T04:18:59;57.47;18.92;
69736;PMS5003;60097;55.004;73.344;2022-10-16T04:21:26;61.38;18.63;
69736;PMS5003;60097;55.004;73.344;2022-10-16T04:23:52;72.18;18.52;
69736;PMS5003;60097;55.004;73.344;2022-10-16T04:26:19;42.72;17.70;
69736;PMS5003;60097;55.004;73.344;2022-10-16T04:28:45;49.14;17.49;
69736;PMS5003;60097;55.004;73.344;2022-10-16T04:31:12;52.95;18.13;
69736;PMS5003;60097;55.004;73.344;2022-10-16T04:33:44;50.03;17.45;
69736;PMS5003;60097;55.004;73.344;2022-10-16T04:36:10;41.20;17.10;
69736;PMS5003;60097;55.004;73.344;2022-10-16T04:38:41;41.75;16.30;
69736;PMS5003;60097;55.004;73.344;2022-10-16T04:41:08;44.92;16.67;
69736;PMS5003;60097;55.004;73.344;2022-10-16T04:43:41;38.70;17.52;
69736;PMS5003;60097;55.004;73.344;2022-10-16T04:46:07;40.28;16.80;
69736;PMS5003;60097;55.004;73.344;2022-10-16T04:48:41;38.94;16.68;
69736;PMS5003;60097;55.004;73.344;2022-10-16T04:51:07;35.78;17.20;
69736;PMS5003;60097;55.004;73.344;2022-10-16T04:53:41;56.72;19.45;
69736;PMS5003;60097;55.004;73.344;2022-10-16T04:56:08;41.83;17.83;
69736;PMS5003;60097;55.004;73.344;2022-10-16T04:58:41;37.20;18.32;
69736;PMS5003;60097;55.004;73.344;2022-10-16T05:01:07;51.78;20.15;
69736;PMS5003;60097;55.004;73.344;2022-10-16T05:03:41;42.50;18.55;
69736;PMS5003;60097;55.004;73.344;2022-10-16T05:06:07;51.65;18.30;
69736;PMS5003;60097;55.004;73.344;2022-10-16T05:08:41;37.62;18.30;
69736;PMS5003;60097;55.004;73.344;2022-10-16T05:11:16;42.85;18.40;
69736;PMS5003;60097;55.004;73.344;2022-10-16T05:13:43;48.45;19.45;
69736;PMS5003;60097;55.004;73.344;2022-10-16T05:16:13;37.95;18.63;
69736;PMS5003;60097;55.004;73.344;2022-10-16T05:18:41;51.60;18.35;
69736;PMS5003;60097;55.004;73.344;2022-10-16T05:21:07;42.75;17.13;
69736;PMS5003;60097;55.004;73.344;2022-10-16T05:23:43;48.64;17.94;
69736;PMS5003;60097;55.004;73.344;2022-10-16T05:26:14;34.58;16.65;
69736;PMS5003;60097;55.004;73.344;2022-10-16T05:28:41;43.25;15.70;
69736;PMS5003;60097;55.004;73.344;2022-10-16T05:31:08;45.35;16.23;
69736;PMS5003;60097;55.004;73.344;2022-10-16T05:33:41;46.08;16.50;
69736;PMS5003;60097;55.004;73.344;2022-10-16T05:36:12;47.30;15.85;
69736;PMS5003;60097;55.004;73.344;2022-10-16T05:38:41;34.22;17.63;
69736;PMS5003;60097;55.004;73.344;2022-10-16T05:41:08;38.97;16.20;
69736;PMS5003;60097;55.004;73.344;2022-10-16T05:46:49;25.23;16.65;
69736;PMS5003;60097;55.004;73.344;2022-10-16T05:49:16;45.15;18.38;
69736;PMS5003;60097;55.004;73.344;2022-10-16T05:51:42;25.92;16.90;
69736;PMS5003;60097;55.004;73.344;2022-10-16T05:54:08;76.50;19.25;
69736;PMS5003;60097;55.004;73.344;2022-10-16T05:56:35;39.90;18.50;
69736;PMS5003;60097;55.004;73.344;2022-10-16T05:59:03;41.97;15.95;
69736;PMS5003;60097;55.004;73.344;2022-10-16T06:01:30;23.63;13.93;
69736;PMS5003;60097;55.004;73.344;2022-10-16T06:03:56;29.05;12.95;
69736;PMS5003;60097;55.004;73.344;2022-10-16T06:06:24;24.90;13.38;
69736;PMS5003;60097;55.004;73.344;2022-10-16T06:08:52;18.80;12.48;
69736;PMS5003;60097;55.004;73.344;2022-10-16T06:11:20;28.15;13.57;
69736;PMS5003;60097;55.004;73.344;2022-10-16T06:13:52;36.83;13.15;
69736;PMS5003;60097;55.004;73.344;2022-10-16T06:16:19;36.83;15.18;
69736;PMS5003;60097;55.004;73.344;2022-10-16T06:18:46;21.35;11.40;
69736;PMS5003;60097;55.004;73.344;2022-10-16T06:21:23;26.05;12.45;
69736;PMS5003;60097;55.004;73.344;2022-10-16T06:23:54;26.48;10.88;
69736;PMS5003;60097;55.004;73.344;2022-10-16T06:26:27;16.00;10.38;
69736;PMS5003;60097;55.004;73.344;2022-10-16T06:28:55;12.25;7.82;
69736;PMS5003;60097;55.004;73.344;2022-10-16T06:31:23;12.00;6.50;
69736;PMS5003;60097;55.004;73.344;2022-10-16T06:33:53;15.32;6.80;
69736;PMS5003;60097;55.004;73.344;2022-10-16T06:36:20;11.48;7.30;
69736;PMS5003;60097;55.004;73.344;2022-10-16T06:38:47;16.80;6.70;
69736;PMS5003;60097;55.004;73.344;2022-10-16T06:41:18;10.48;5.82;
69736;PMS5003;60097;55.004;73.344;2022-10-16T06:43:47;30.80;6.05;
69736;PMS5003;60097;55.004;73.344;2022-10-16T06:46:16;10.45;5.20;
69736;PMS5003;60097;55.004;73.344;2022-10-16T06:48:44;11.02;5.84;
69736;PMS5003;60097;55.004;73.344;2022-10-16T06:51:12;8.52;5.97;
69736;PMS5003;60097;55.004;73.344;2022-10-16T06:53:42;11.57;5.88;
69736;PMS5003;60097;55.004;73.344;2022-10-16T06:56:16;12.00;6.63;
69736;PMS5003;60097;55.004;73.344;2022-10-16T06:59:14;7.67;5.60;
69736;PMS5003;60097;55.004;73.344;2022-10-16T07:01:47;8.43;5.55;
69736;PMS5003;60097;55.004;73.344;2022-10-16T07:04:14;11.48;6.28;
69736;PMS5003;60097;55.004;73.344;2022-10-16T07:06:40;81.25;13.75;
69736;PMS5003;60097;55.004;73.344;2022-10-16T07:09:08;19.23;7.15;
69736;PMS5003;60097;55.004;73.344;2022-10-16T07:11:37;8.80;6.85;
69736;PMS5003;60097;55.004;73.344;2022-10-16T07:14:04;15.13;6.50;
69736;PMS5003;60097;55.004;73.344;2022-10-16T07:16:32;8.48;5.63;
69736;PMS5003;60097;55.004;73.344;2022-10-16T07:18:59;11.50;5.30;
69736;PMS5003;60097;55.004;73.344;2022-10-16T07:22:00;13.32;6.40;
69736;PMS5003;60097;55.004;73.344;2022-10-16T07:24:34;18.40;6.18;
69736;PMS5003;60097;55.004;73.344;2022-10-16T07:27:07;11.95;6.45;
69736;PMS5003;60097;55.004;73.344;2022-10-16T07:29:33;9.80;5.67;
69736;PMS5003;60097;55.004;73.344;2022-10-16T07:32:01;7.80;5.68;
69736;PMS5003;60097;55.004;73.344;2022-10-16T07:34:27;11.85;6.35;
69736;PMS5003;60097;55.004;73.344;2022-10-16T07:36:59;8.65;6.25;
69736;PMS5003;60097;55.004;73.344;2022-10-16T07:39:26;11.70;6.25;
69736;PMS5003;60097;55.004;73.344;2022-10-16T07:41:52;16.30;6.15;
69736;PMS5003;60097;55.004;73.344;2022-10-16T07:44:19;10.68;6.30;
69736;PMS5003;60097;55.004;73.344;2022-10-16T07:46:47;16.75;8.77;
69736;PMS5003;60097;55.004;73.344;2022-10-16T07:49:52;28.27;8.18;
69736;PMS5003;60097;55.004;73.344;2022-10-16T07:52:20;23.05;9.38;
69736;PMS5003;60097;55.004;73.344;2022-10-16T07:54:47;20.52;8.35;
69736;PMS5003;60097;55.004;73.344;2022-10-16T07:57:13;21.73;8.52;
69736;PMS5003;60097;55.004;73.344;2022-10-16T07:59:54;13.98;7.78;
69736;PMS5003;60097;55.004;73.344;2022-10-16T08:02:21;21.55;9.27;
69736;PMS5003;60097;55.004;73.344;2022-10-16T08:04:52;25.93;8.97;
69736;PMS5003;60097;55.004;73.344;2022-10-16T08:07:18;27.38;9.48;
69736;PMS5003;60097;55.004;73.344;2022-10-16T08:09:55;21.83;9.40;
69736;PMS5003;60097;55.004;73.344;2022-10-16T08:12:26;18.77;9.27;
69736;PMS5003;60097;55.004;73.344;2022-10-16T08:14:52;15.00;9.83;
69736;PMS5003;60097;55.004;73.344;2022-10-16T08:17:18;21.73;10.23;
69736;PMS5003;60097;55.004;73.344;2022-10-16T08:19:45;30.88;11.38;
69736;PMS5003;60097;55.004;73.344;2022-10-16T08:22:23;28.58;11.93;
69736;PMS5003;60097;55.004;73.344;2022-10-16T08:24:56;17.88;10.02;
69736;PMS5003;60097;55.004;73.344;2022-10-16T08:27:22;13.63;8.52;
69736;PMS5003;60097;55.004;73.344;2022-10-16T08:29:53;17.40;9.10;
69736;PMS5003;60097;55.004;73.344;2022-10-16T08:32:19;15.82;7.72;
69736;PMS5003;60097;55.004;73.344;2022-10-16T08:34:53;14.05;7.63;
69736;PMS5003;60097;55.004;73.344;2022-10-16T08:37:29;15.93;7.90;
69736;PMS5003;60097;55.004;73.344;2022-10-16T08:39:56;14.75;7.93;
69736;PMS5003;60097;55.004;73.344;2022-10-16T08:46:04;19.33;8.65;
69736;PMS5003;60097;55.004;73.344;2022-10-16T08:48:48;22.92;7.95;
69736;PMS5003;60097;55.004;73.344;2022-10-16T08:51:49;8.52;7.47;
69736;PMS5003;60097;55.004;73.344;2022-10-16T08:57:12;9.02;6.32;
69736;PMS5003;60097;55.004;73.344;2022-10-16T08:59:40;11.00;6.80;
69736;PMS5003;60097;55.004;73.344;2022-10-16T09:02:16;11.07;6.00;
69736;PMS5003;60097;55.004;73.344;2022-10-16T09:26:03;17.35;9.18;
69736;PMS5003;60097;55.004;73.344;2022-10-16T09:32:12;22.48;8.23;
69736;PMS5003;60097;55.004;73.344;2022-10-16T09:34:45;13.17;7.00;
69736;PMS5003;60097;55.004;73.344;2022-10-16T09:37:21;10.13;6.40;
69736;PMS5003;60097;55.004;73.344;2022-10-16T09:39:49;7.60;6.30;
69736;PMS5003;60097;55.004;73.344;2022-10-16T09:42:21;12.27;6.80;
69736;PMS5003;60097;55.004;73.344;2022-10-16T09:45:19;12.23;6.03;
69736;PMS5003;60097;55.004;73.344;2022-10-16T09:50:39;16.63;5.95;
69736;PMS5003;60097;55.004;73.344;2022-10-16T09:53:11;11.05;6.35;
69736;PMS5003;60097;55.004;73.344;2022-10-16T09:56:20;14.63;6.85;
69736;PMS5003;60097;55.004;73.344;2022-10-16T09:59:19;10.90;6.95;
69736;PMS5003;60097;55.004;73.344;2022-10-16T10:02:18;12.88;6.22;
69736;PMS5003;60097;55.004;73.344;2022-10-16T10:04:50;6.63;5.67;
69736;PMS5003;60097;55.004;73.344;2022-10-16T10:07:21;8.70;6.43;
69736;PMS5003;60097;55.004;73.344;2022-10-16T10:09:51;7.43;6.00;
69736;PMS5003;60097;55.004;73.344;2022-10-16T10:12:21;13.07;6.20;
69736;PMS5003;60097;55.004;73.344;2022-10-16T10:17:56;9.40;6.95;
69736;PMS5003;60097;55.004;73.344;2022-10-16T10:20:57;11.15;6.22;
69736;PMS5003;60097;55.004;73.344;2022-10-16T10:23:29;17.35;6.90;
69736;PMS5003;60097;55.004;73.344;2022-10-16T10:32:23;13.52;6.57;
69736;PMS5003;60097;55.004;73.344;2022-10-16T10:38:16;15.88;7.32;
69736;PMS5003;60097;55.004;73.344;2022-10-16T10:44:07;16.05;7.88;
69736;PMS5003;60097;55.004;73.344;2022-10-16T11:01:50;27.20;9.07;
69736;PMS5003;60097;55.004;73.344;2022-10-16T11:04:56;38.88;12.32;
69736;PMS5003;60097;55.004;73.344;2022-10-16T11:07:32;72.53;15.48;
69736;PMS5003;60097;55.004;73.344;2022-10-16T11:10:13;65.60;16.08;
69736;PMS5003;60097;55.004;73.344;2022-10-16T11:21:19;30.75;6.93;
69736;PMS5003;60097;55.004;73.344;2022-10-16T11:26:26;20.00;6.47;
69736;PMS5003;60097;55.004;73.344;2022-10-16T11:29:04;25.83;7.32;
69736;PMS5003;60097;55.004;73.344;2022-10-16T11:36:58;18.00;7.95;
69736;PMS5003;60097;55.004;73.344;2022-10-16T11:39:31;16.35;6.55;
69736;PMS5003;60097;55.004;73.344;2022-10-16T11:42:11;13.57;7.57;
69736;PMS5003;60097;55.004;73.344;2022-10-16T11:50:53;14.40;9.03;
69736;PMS5003;60097;55.004;73.344;2022-10-16T11:54:02;24.10;11.13;
69736;PMS5003;60097;55.004;73.344;2022-10-16T11:56:36;20.13;10.75;
69736;PMS5003;60097;55.004;73.344;2022-10-16T12:06:00;37.58;17.65;
69736;PMS5003;60097;55.004;73.344;2022-10-16T12:08:28;50.83;21.67;
69736;PMS5003;60097;55.004;73.344;2022-10-16T12:11:05;55.33;27.38;
69736;PMS5003;60097;55.004;73.344;2022-10-16T12:13:45;71.29;38.43;
69736;PMS5003;60097;55.004;73.344;2022-10-16T12:18:49;101.10;52.73;
69736;PMS5003;60097;55.004;73.344;2022-10-16T12:21:31;93.95;43.85;
69736;PMS5003;60097;55.004;73.344;2022-10-16T12:23:58;69.95;38.50;
69736;PMS5003;60097;55.004;73.344;2022-10-16T12:26:38;69.35;39.35;
69736;PMS5003;60097;55.004;73.344;2022-10-16T12:35:29;50.22;34.75;
69736;PMS5003;60097;55.004;73.344;2022-10-16T12:38:05;66.27;33.73;
69736;PMS5003;60097;55.004;73.344;2022-10-16T12:43:27;60.60;37.25;
69736;PMS5003;60097;55.004;73.344;2022-10-16T12:46:04;59.47;33.38;
69736;PMS5003;60097;55.004;73.344;2022-10-16T12:48:44;52.42;34.70;
69736;PMS5003;60097;55.004;73.344;2022-10-16T12:51:23;43.40;26.30;
69736;PMS5003;60097;55.004;73.344;2022-10-16T12:53:58;43.70;26.95;
69736;PMS5003;60097;55.004;73.344;2022-10-16T12:56:42;40.95;27.95;
69736;PMS5003;60097;55.004;73.344;2022-10-16T13:20:43;52.75;18.52;
69736;PMS5003;60097;55.004;73.344;2022-10-16T13:24:02;44.38;19.23;
69736;PMS5003;60097;55.004;73.344;2022-10-16T13:29:08;40.63;22.08;
69736;PMS5003;60097;55.004;73.344;2022-10-16T13:31:36;38.75;26.08;
69736;PMS5003;60097;55.004;73.344;2022-10-16T13:34:05;73.30;35.10;
69736;PMS5003;60097;55.004;73.344;2022-10-16T13:37:15;48.65;30.30;
69736;PMS5003;60097;55.004;73.344;2022-10-16T13:39:36;44.20;27.77;
69736;PMS5003;60097;55.004;73.344;2022-10-16T13:42:09;40.47;25.42;
69736;PMS5003;60097;55.004;73.344;2022-10-16T13:44:49;43.25;26.40;
69736;PMS5003;60097;55.004;73.344;2022-10-16T13:47:17;41.33;23.13;
69736;PMS5003;60097;55.004;73.344;2022-10-16T13:52:27;35.10;21.27;
69736;PMS5003;60097;55.004;73.344;2022-10-16T13:54:54;37.38;20.92;
69736;PMS5003;60097;55.004;73.344;2022-10-16T13:57:21;34.15;21.85;
69736;PMS5003;60097;55.004;73.344;2022-10-16T13:59:49;33.70;21.45;
69736;PMS5003;60097;55.004;73.344;2022-10-16T14:02:29;32.38;20.05;
69736;PMS5003;60097;55.004;73.344;2022-10-16T14:05:00;31.40;20.25;
69736;PMS5003;60097;55.004;73.344;2022-10-16T14:07:29;32.65;19.65;
69736;PMS5003;60097;55.004;73.344;2022-10-16T14:09:59;53.27;21.23;
69736;PMS5003;60097;55.004;73.344;2022-10-16T14:12:33;28.70;18.38;
69736;PMS5003;60097;55.004;73.344;2022-10-16T14:15:00;27.52;17.50;
69736;PMS5003;60097;55.004;73.344;2022-10-16T14:17:27;34.72;19.15;
69736;PMS5003;60097;55.004;73.344;2022-10-16T14:19:57;42.15;19.75;
69736;PMS5003;60097;55.004;73.344;2022-10-16T14:27:45;42.92;17.05;
69736;PMS5003;60097;55.004;73.344;2022-10-16T14:30:22;32.35;16.95;
69736;PMS5003;60097;55.004;73.344;2022-10-16T14:35:37;28.88;14.50;
69736;PMS5003;60097;55.004;73.344;2022-10-16T14:38:06;39.47;13.93;
69736;PMS5003;60097;55.004;73.344;2022-10-16T14:40:45;32.13;13.80;
69736;PMS5003;60097;55.004;73.344;2022-10-16T14:43:19;27.50;13.38;
69736;PMS5003;60097;55.004;73.344;2022-10-16T14:45:57;21.67;12.43;
69736;PMS5003;60097;55.004;73.344;2022-10-16T14:48:28;22.75;13.10;
69736;PMS5003;60097;55.004;73.344;2022-10-16T14:51:07;19.45;12.05;
69736;PMS5003;60097;55.004;73.344;2022-10-16T14:53:41;20.92;12.30;
69736;PMS5003;60097;55.004;73.344;2022-10-16T14:56:08;21.65;12.80;
69736;PMS5003;60097;55.004;73.344;2022-10-16T14:58:45;22.44;14.09;
69736;PMS5003;60097;55.004;73.344;2022-10-16T15:01:11;37.55;14.98;
69736;PMS5003;60097;55.004;73.344;2022-10-16T15:03:48;23.97;14.03;
69736;PMS5003;60097;55.004;73.344;2022-10-16T15:06:24;27.90;16.15;
69736;PMS5003;60097;55.004;73.344;2022-10-16T15:08:50;36.70;15.63;
69736;PMS5003;60097;55.004;73.344;2022-10-16T15:11:18;30.15;14.52;
69736;PMS5003;60097;55.004;73.344;2022-10-16T15:13:46;28.56;16.51;
69736;PMS5003;60097;55.004;73.344;2022-10-16T15:16:14;30.50;17.15;
69736;PMS5003;60097;55.004;73.344;2022-10-16T15:18:41;30.30;16.98;
69736;PMS5003;60097;55.004;73.344;2022-10-16T15:21:10;32.38;17.35;
69736;PMS5003;60097;55.004;73.344;2022-10-16T15:26:54;37.88;23.90;
69736;PMS5003;60097;55.004;73.344;2022-10-16T15:29:20;49.15;25.27;
69736;PMS5003;60097;55.004;73.344;2022-10-16T15:31:48;50.95;27.45;
69736;PMS5003;60097;55.004;73.344;2022-10-16T15:34:15;48.22;29.83;
69736;PMS5003;60097;55.004;73.344;2022-10-16T15:36:43;52.42;30.60;
69736;PMS5003;60097;55.004;73.344;2022-10-16T15:39:13;51.65;32.85;
69736;PMS5003;60097;55.004;73.344;2022-10-16T15:41:42;53.00;32.67;
69736;PMS5003;60097;55.004;73.344;2022-10-16T15:44:16;62.78;33.85;
69736;PMS5003;60097;55.004;73.344;2022-10-16T15:46:43;56.47;32.15;
69736;PMS5003;60097;55.004;73.344;2022-10-16T15:49:10;56.20;35.60;
69736;PMS5003;60097;55.004;73.344;2022-10-16T15:51:40;61.17;36.60;
69736;PMS5003;60097;55.004;73.344;2022-10-16T15:54:08;70.32;37.17;
69736;PMS5003;60097;55.004;73.344;2022-10-16T15:56:34;59.85;34.88;
69736;PMS5003;60097;55.004;73.344;2022-10-16T15:59:07;55.85;36.13;
69736;PMS5003;60097;55.004;73.344;2022-10-16T16:01:37;62.70;35.92;
69736;PMS5003;60097;55.004;73.344;2022-10-16T16:04:08;64.43;36.60;
69736;PMS5003;60097;55.004;73.344;2022-10-16T16:06:35;58.72;36.80;
69736;PMS5003;60097;55.004;73.344;2022-10-16T16:09:05;47.28;32.03;
69736;PMS5003;60097;55.004;73.344;2022-10-16T16:11:31;58.67;31.33;
69736;PMS5003;60097;55.004;73.344;2022-10-16T16:14:29;58.92;30.55;
69736;PMS5003;60097;55.004;73.344;2022-10-16T16:16:57;53.72;31.45;
69736;PMS5003;60097;55.004;73.344;2022-10-16T16:19:24;48.63;29.70;
69736;PMS5003;60097;55.004;73.344;2022-10-16T16:21:50;45.38;27.77;
69736;PMS5003;60097;55.004;73.344;2022-10-16T16:24:17;39.97;25.67;
69736;PMS5003;60097;55.004;73.344;2022-10-16T16:29:52;47.60;24.02;
69736;PMS5003;60097;55.004;73.344;2022-10-16T16:32:25;40.65;22.80;
69736;PMS5003;60097;55.004;73.344;2022-10-16T16:34:57;37.97;18.57;
69736;PMS5003;60097;55.004;73.344;2022-10-16T16:37:25;31.17;16.42;
69736;PMS5003;60097;55.004;73.344;2022-10-16T16:39:52;26.03;15.60;
69736;PMS5003;60097;55.004;73.344;2022-10-16T16:42:20;28.33;16.15;
69736;PMS5003;60097;55.004;73.344;2022-10-16T16:44:47;30.52;18.10;
69736;PMS5003;60097;55.004;73.344;2022-10-16T16:47:19;37.47;15.98;
69736;PMS5003;60097;55.004;73.344;2022-10-16T16:49:56;26.40;16.53;
69736;PMS5003;60097;55.004;73.344;2022-10-16T16:52:22;37.70;16.98;
69736;PMS5003;60097;55.004;73.344;2022-10-16T16:55:02;28.80;16.40;
69736;PMS5003;60097;55.004;73.344;2022-10-16T16:57:32;39.47;17.60;
69736;PMS5003;60097;55.004;73.344;2022-10-16T16:59:58;42.10;18.33;
69736;PMS5003;60097;55.004;73.344;2022-10-16T17:02:25;25.38;17.13;
69736;PMS5003;60097;55.004;73.344;2022-10-16T17:04:56;45.72;19.73;
69736;PMS5003;60097;55.004;73.344;2022-10-16T17:07:30;30.27;20.83;
69736;PMS5003;60097;55.004;73.344;2022-10-16T17:09:58;42.15;21.05;
69736;PMS5003;60097;55.004;73.344;2022-10-16T17:12:24;44.10;22.30;
69736;PMS5003;60097;55.004;73.344;2022-10-16T17:14:51;44.37;21.77;
69736;PMS5003;60097;55.004;73.344;2022-10-16T17:17:17;32.97;21.02;
69736;PMS5003;60097;55.004;73.344;2022-10-16T17:19:51;43.70;20.80;
69736;PMS5003;60097;55.004;73.344;2022-10-16T17:22:26;32.60;19.23;
69736;PMS5003;60097;55.004;73.344;2022-10-16T17:24:52;28.02;17.63;
69736;PMS5003;60097;55.004;73.344;2022-10-16T17:27:19;32.10;19.15;
69736;PMS5003;60097;55.004;73.344;2022-10-16T17:29:50;35.60;15.85;
69736;PMS5003;60097;55.004;73.344;2022-10-16T17:32:28;27.58;14.82;
69736;PMS5003;60097;55.004;73.344;2022-10-16T17:35:06;25.70;15.10;
69736;PMS5003;60097;55.004;73.344;2022-10-16T17:37:38;28.65;14.65;
69736;PMS5003;60097;55.004;73.344;2022-10-16T17:40:11;34.17;14.40;
69736;PMS5003;60097;55.004;73.344;2022-10-16T17:45:46;14.82;10.88;
69736;PMS5003;60097;55.004;73.344;2022-10-16T17:48:23;20.58;12.30;
69736;PMS5003;60097;55.004;73.344;2022-10-16T17:50:50;15.35;11.10;
69736;PMS5003;60097;55.004;73.344;2022-10-16T17:53:28;17.73;9.65;
69736;PMS5003;60097;55.004;73.344;2022-10-16T17:56:01;16.35;10.15;
69736;PMS5003;60097;55.004;73.344;2022-10-16T17:58:41;12.98;8.55;
69736;PMS5003;60097;55.004;73.344;2022-10-16T18:01:39;14.02;8.02;
69736;PMS5003;60097;55.004;73.344;2022-10-16T18:04:07;10.40;5.80;
69736;PMS5003;60097;55.004;73.344;2022-10-16T18:06:42;20.13;6.20;
69736;PMS5003;60097;55.004;73.344;2022-10-16T18:09:10;9.73;5.85;
69736;PMS5003;60097;55.004;73.344;2022-10-16T18:11:38;6.93;5.10;
69736;PMS5003;60097;55.004;73.344;2022-10-16T18:14:16;6.68;5.20;
69736;PMS5003;60097;55.004;73.344;2022-10-16T18:16:43;9.45;5.25;